sensor_id;sensor_type;location;lat;lon;timestamp;P1;durP1;ratioP1;P2;durP2;ratioP2
45734;SDS011;31446;49.632;8.328;2022-08-19T00:07:57;19.23;;;14.70;;
45734;SDS011;31446;49.632;8.328;2022-08-19T00:22:58;18.10;;;15.15;;
45734;SDS011;31446;49.632;8.328;2022-08-19T00:37:59;18.05;;;15.10;;
45734;SDS011;31446;49.632;8.328;2022-08-19T00:52:59;24.23;;;15.75;;
45734;SDS011;31446;49.632;8.328;2022-08-19T01:08:04;19.23;;;15.13;;
45734;SDS011;31446;49.632;8.328;2022-08-19T01:23:06;18.92;;;16.13;;
45734;SDS011;31446;49.632;8.328;2022-08-19T01:38:08;19.97;;;15.37;;
45734;SDS011;31446;49.632;8.328;2022-08-19T01:53:19;19.80;;;15.45;;
45734;SDS011;31446;49.632;8.328;2022-08-19T02:08:19;26.58;;;17.00;;
45734;SDS011;31446;49.632;8.328;2022-08-19T02:23:20;21.55;;;16.60;;
45734;SDS011;31446;49.632;8.328;2022-08-19T02:38:20;24.60;;;16.60;;
45734;SDS011;31446;49.632;8.328;2022-08-19T02:53:27;24.90;;;15.98;;
45734;SDS011;31446;49.632;8.328;2022-08-19T03:08:29;18.38;;;13.77;;
45734;SDS011;31446;49.632;8.328;2022-08-19T03:23:29;22.25;;;14.02;;
45734;SDS011;31446;49.632;8.328;2022-08-19T03:38:30;17.02;;;12.50;;
45734;SDS011;31446;49.632;8.328;2022-08-19T03:53:32;16.42;;;12.82;;
45734;SDS011;31446;49.632;8.328;2022-08-19T04:08:34;14.30;;;11.30;;
45734;SDS011;31446;49.632;8.328;2022-08-19T04:23:34;16.23;;;12.75;;
45734;SDS011;31446;49.632;8.328;2022-08-19T04:38:38;15.98;;;10.98;;
45734;SDS011;31446;49.632;8.328;2022-08-19T04:53:40;15.80;;;12.38;;
45734;SDS011;31446;49.632;8.328;2022-08-19T05:08:41;14.93;;;12.20;;
45734;SDS011;31446;49.632;8.328;2022-08-19T05:23:43;14.63;;;12.05;;
45734;SDS011;31446;49.632;8.328;2022-08-19T05:38:44;12.95;;;10.98;;
45734;SDS011;31446;49.632;8.328;2022-08-19T05:53:44;12.55;;;10.35;;
45734;SDS011;31446;49.632;8.328;2022-08-19T06:08:45;14.18;;;8.82;;
45734;SDS011;31446;49.632;8.328;2022-08-19T06:23:51;9.15;;;7.95;;
45734;SDS011;31446;49.632;8.328;2022-08-19T06:38:52;13.65;;;8.27;;
45734;SDS011;31446;49.632;8.328;2022-08-19T06:53:53;11.68;;;8.00;;
45734;SDS011;31446;49.632;8.328;2022-08-19T07:08:55;9.60;;;7.22;;
45734;SDS011;31446;49.632;8.328;2022-08-19T07:23:58;18.50;;;8.50;;
45734;SDS011;31446;49.632;8.328;2022-08-19T07:39:00;11.80;;;7.22;;
45734;SDS011;31446;49.632;8.328;2022-08-19T07:54:04;11.80;;;7.73;;
45734;SDS011;31446;49.632;8.328;2022-08-19T08:09:06;10.60;;;7.47;;
45734;SDS011;31446;49.632;8.328;2022-08-19T08:24:15;10.70;;;7.80;;
45734;SDS011;31446;49.632;8.328;2022-08-19T08:39:17;10.48;;;7.18;;
45734;SDS011;31446;49.632;8.328;2022-08-19T08:54:20;12.52;;;6.70;;
45734;SDS011;31446;49.632;8.328;2022-08-19T09:24:31;12.23;;;7.20;;
45734;SDS011;31446;49.632;8.328;2022-08-19T09:39:32;9.48;;;6.05;;
45734;SDS011;31446;49.632;8.328;2022-08-19T09:54:33;11.73;;;8.48;;
45734;SDS011;31446;49.632;8.328;2022-08-19T10:09:34;7.78;;;6.80;;
45734;SDS011;31446;49.632;8.328;2022-08-19T10:24:34;8.75;;;6.28;;
45734;SDS011;31446;49.632;8.328;2022-08-19T10:39:35;9.95;;;4.90;;
45734;SDS011;31446;49.632;8.328;2022-08-19T10:54:36;6.80;;;5.55;;
45734;SDS011;31446;49.632;8.328;2022-08-19T11:09:59;7.63;;;5.13;;
45734;SDS011;31446;49.632;8.328;2022-08-19T11:25:01;4.90;;;4.23;;
45734;SDS011;31446;49.632;8.328;2022-08-19T11:40:03;5.47;;;3.27;;
45734;SDS011;31446;49.632;8.328;2022-08-19T11:55:05;5.27;;;3.67;;
45734;SDS011;31446;49.632;8.328;2022-08-19T12:10:06;4.20;;;3.53;;
45734;SDS011;31446;49.632;8.328;2022-08-19T12:25:07;4.03;;;3.63;;
45734;SDS011;31446;49.632;8.328;2022-08-19T12:40:12;11.43;;;4.60;;
45734;SDS011;31446;49.632;8.328;2022-08-19T12:55:14;3.83;;;3.45;;
45734;SDS011;31446;49.632;8.328;2022-08-19T13:10:16;4.82;;;2.85;;
45734;SDS011;31446;49.632;8.328;2022-08-19T13:25:19;4.60;;;2.40;;
45734;SDS011;31446;49.632;8.328;2022-08-19T13:40:22;9.53;;;2.47;;
45734;SDS011;31446;49.632;8.328;2022-08-19T13:55:26;3.97;;;2.07;;
45734;SDS011;31446;49.632;8.328;2022-08-19T14:10:27;3.03;;;2.57;;
45734;SDS011;31446;49.632;8.328;2022-08-19T14:25:31;6.63;;;2.70;;
45734;SDS011;31446;49.632;8.328;2022-08-19T14:40:32;4.27;;;2.20;;
45734;SDS011;31446;49.632;8.328;2022-08-19T14:55:33;4.70;;;2.30;;
45734;SDS011;31446;49.632;8.328;2022-08-19T15:10:34;2.20;;;2.10;;
45734;SDS011;31446;49.632;8.328;2022-08-19T15:25:35;5.20;;;2.75;;
45734;SDS011;31446;49.632;8.328;2022-08-19T15:40:35;4.63;;;4.07;;
45734;SDS011;31446;49.632;8.328;2022-08-19T15:55:41;6.35;;;3.80;;
45734;SDS011;31446;49.632;8.328;2022-08-19T16:10:44;6.10;;;3.50;;
45734;SDS011;31446;49.632;8.328;2022-08-19T16:25:45;6.43;;;4.32;;
45734;SDS011;31446;49.632;8.328;2022-08-19T16:40:46;5.72;;;4.82;;
45734;SDS011;31446;49.632;8.328;2022-08-19T16:55:48;8.23;;;4.83;;
45734;SDS011;31446;49.632;8.328;2022-08-19T17:10:50;6.80;;;4.27;;
45734;SDS011;31446;49.632;8.328;2022-08-19T17:25:53;7.30;;;4.50;;
45734;SDS011;31446;49.632;8.328;2022-08-19T17:40:53;8.63;;;4.80;;
45734;SDS011;31446;49.632;8.328;2022-08-19T17:56:04;10.57;;;5.37;;
45734;SDS011;31446;49.632;8.328;2022-08-19T18:11:05;6.00;;;4.70;;
45734;SDS011;31446;49.632;8.328;2022-08-19T18:26:07;8.07;;;5.30;;
45734;SDS011;31446;49.632;8.328;2022-08-19T18:41:08;5.65;;;5.13;;
45734;SDS011;31446;49.632;8.328;2022-08-19T18:56:28;8.00;;;5.30;;
45734;SDS011;31446;49.632;8.328;2022-08-19T19:11:35;22.52;;;7.07;;
45734;SDS011;31446;49.632;8.328;2022-08-19T19:26:37;20.55;;;6.22;;
45734;SDS011;31446;49.632;8.328;2022-08-19T19:41:37;8.02;;;6.50;;
45734;SDS011;31446;49.632;8.328;2022-08-19T19:56:40;10.68;;;6.00;;
45734;SDS011;31446;49.632;8.328;2022-08-19T20:26:51;11.13;;;6.40;;
45734;SDS011;31446;49.632;8.328;2022-08-19T20:41:52;20.33;;;6.90;;
45734;SDS011;31446;49.632;8.328;2022-08-19T20:56:55;8.60;;;5.70;;
45734;SDS011;31446;49.632;8.328;2022-08-19T21:11:56;12.82;;;5.07;;
45734;SDS011;31446;49.632;8.328;2022-08-19T21:26:56;8.02;;;4.47;;
45734;SDS011;31446;49.632;8.328;2022-08-19T21:41:58;7.18;;;4.18;;
45734;SDS011;31446;49.632;8.328;2022-08-19T21:57:03;9.00;;;4.78;;
45734;SDS011;31446;49.632;8.328;2022-08-19T22:12:05;8.15;;;4.20;;
45734;SDS011;31446;49.632;8.328;2022-08-19T22:27:08;9.85;;;3.53;;
45734;SDS011;31446;49.632;8.328;2022-08-19T22:42:08;7.18;;;3.15;;
45734;SDS011;31446;49.632;8.328;2022-08-19T22:57:10;8.30;;;2.47;;
45734;SDS011;31446;49.632;8.328;2022-08-19T23:12:14;6.97;;;2.50;;
45734;SDS011;31446;49.632;8.328;2022-08-19T23:27:24;10.52;;;2.53;;
45734;SDS011;31446;49.632;8.328;2022-08-19T23:42:43;7.47;;;2.13;;
45734;SDS011;31446;49.632;8.328;2022-08-19T23:57:45;5.93;;;2.42;;
